createdAt,value
2023-04-09T00:00:17.692Z,20.90
2023-04-09T00:02:44.493Z,21.40
2023-04-09T00:05:11.313Z,22.00
2023-04-09T00:07:38.017Z,20.17
2023-04-09T00:10:05.284Z,21.73
2023-04-09T00:12:31.934Z,22.13
2023-04-09T00:14:58.601Z,21.60
2023-04-09T00:17:25.279Z,28.23
2023-04-09T00:19:52.221Z,21.87
2023-04-09T00:22:19.092Z,29.77
2023-04-09T00:24:46.180Z,26.93
2023-04-09T00:27:12.882Z,28.93
2023-04-09T00:29:39.546Z,26.50
2023-04-09T00:32:06.543Z,29.80
2023-04-09T00:34:33.397Z,27.03
2023-04-09T00:37:00.072Z,23.93
2023-04-09T00:39:26.774Z,24.40
2023-04-09T00:42:02.943Z,27.50
2023-04-09T00:44:29.668Z,24.20
2023-04-09T00:46:58.685Z,27.73
2023-04-09T00:49:26.556Z,29.37
2023-04-09T00:51:53.877Z,26.70
2023-04-09T00:54:20.736Z,27.50
2023-04-09T00:56:47.822Z,26.37
2023-04-09T00:59:15.410Z,27.40
2023-04-09T01:01:42.186Z,28.17
2023-04-09T01:04:09.261Z,26.93
2023-04-09T01:06:38.788Z,27.90
2023-04-09T01:09:29.907Z,29.43
2023-04-09T01:12:08.159Z,26.70
2023-04-09T01:14:44.198Z,31.93
2023-04-09T01:17:17.608Z,32.77
2023-04-09T01:19:53.920Z,32.53
2023-04-09T01:22:32.921Z,30.70
2023-04-09T01:25:30.646Z,31.60
2023-04-09T01:28:16.871Z,28.47
2023-04-09T01:30:48.047Z,32.07
2023-04-09T01:33:17.667Z,30.03
2023-04-09T01:35:47.048Z,31.00
2023-04-09T01:38:15.577Z,29.23
2023-04-09T01:40:42.945Z,29.80
2023-04-09T01:43:11.331Z,31.47
2023-04-09T01:45:39.024Z,31.80
2023-04-09T01:48:06.407Z,30.60
2023-04-09T01:50:34.156Z,33.87
2023-04-09T01:53:01.842Z,29.57
2023-04-09T01:55:28.547Z,34.27
2023-04-09T01:57:55.245Z,35.10
2023-04-09T02:00:22.229Z,33.20
2023-04-09T02:03:10.738Z,32.00
2023-04-09T02:06:03.714Z,33.60
2023-04-09T02:08:31.135Z,33.03
2023-04-09T02:11:00.627Z,30.60
2023-04-09T02:13:29.517Z,34.37
2023-04-09T02:15:57.284Z,33.53
2023-04-09T02:18:33.131Z,30.57
2023-04-09T02:21:00.278Z,33.07
2023-04-09T02:23:29.774Z,30.23
2023-04-09T02:25:56.548Z,36.53
2023-04-09T02:28:23.351Z,35.67
2023-04-09T02:30:50.028Z,39.70
2023-04-09T02:33:16.764Z,33.40
2023-04-09T02:35:43.465Z,34.57
2023-04-09T02:38:13.974Z,31.73
2023-04-09T02:40:43.948Z,32.50
2023-04-09T02:43:10.903Z,35.37
2023-04-09T02:45:37.600Z,38.97
2023-04-09T02:48:04.547Z,38.43
2023-04-09T02:50:31.299Z,40.20
2023-04-09T02:52:58.009Z,36.60
2023-04-09T02:55:24.657Z,37.80
2023-04-09T02:57:51.383Z,43.10
2023-04-09T03:00:18.148Z,41.13
2023-04-09T03:02:45.149Z,37.57
2023-04-09T03:05:11.955Z,38.63
2023-04-09T03:07:38.646Z,41.37
2023-04-09T03:10:05.699Z,40.57
2023-04-09T03:12:32.464Z,44.87
2023-04-09T03:14:59.234Z,42.43
2023-04-09T03:17:27.385Z,38.30
2023-04-09T03:19:54.176Z,38.13
2023-04-09T03:22:20.988Z,36.73
2023-04-09T03:24:47.660Z,41.30
2023-04-09T03:27:14.493Z,40.87
2023-04-09T03:29:41.154Z,39.40
2023-04-09T03:32:07.855Z,39.33
2023-04-09T03:34:34.762Z,43.67
2023-04-09T03:37:01.656Z,41.17
2023-04-09T03:39:30.927Z,39.50
2023-04-09T03:41:58.997Z,41.20
2023-04-09T03:44:25.795Z,45.00
2023-04-09T03:46:52.715Z,39.97
2023-04-09T03:49:19.765Z,38.70
2023-04-09T03:51:46.420Z,37.53
2023-04-09T03:54:13.238Z,43.50
2023-04-09T03:56:40.028Z,40.77
2023-04-09T03:59:07.076Z,39.60
2023-04-09T04:01:34.929Z,37.90
2023-04-09T04:04:02.014Z,39.20
2023-04-09T04:06:28.810Z,43.30
2023-04-09T04:08:55.633Z,42.37
2023-04-09T04:11:22.456Z,43.83
2023-04-09T04:13:49.114Z,45.10
2023-04-09T04:16:16.085Z,40.00
2023-04-09T04:18:42.770Z,40.00
2023-04-09T04:21:14.629Z,46.07
2023-04-09T04:23:41.493Z,40.20
2023-04-09T04:26:11.724Z,42.90
2023-04-09T04:28:39.266Z,44.20
2023-04-09T04:31:10.724Z,39.13
2023-04-09T04:33:38.858Z,41.00
2023-04-09T04:36:13.527Z,42.17
2023-04-09T04:38:43.532Z,41.00
2023-04-09T04:41:11.180Z,42.73
2023-04-09T04:43:37.922Z,45.90
2023-04-09T04:46:06.207Z,42.13
2023-04-09T04:48:33.136Z,41.93
2023-04-09T04:51:01.219Z,45.03
2023-04-09T04:53:27.962Z,42.73
2023-04-09T04:55:54.984Z,45.50
2023-04-09T04:58:21.985Z,52.73
2023-04-09T05:00:48.893Z,42.03
2023-04-09T05:03:15.812Z,48.90
2023-04-09T05:05:42.711Z,46.73
2023-04-09T05:08:09.416Z,41.27
2023-04-09T05:10:36.229Z,42.40
2023-04-09T05:13:02.964Z,40.80
2023-04-09T05:15:29.775Z,43.93
2023-04-09T05:17:56.571Z,42.03
2023-04-09T05:20:23.452Z,37.27
2023-04-09T05:22:50.541Z,34.67
2023-04-09T05:25:17.514Z,36.17
2023-04-09T05:27:44.250Z,38.20
2023-04-09T05:30:11.193Z,36.77
2023-04-09T05:32:38.353Z,39.00
2023-04-09T05:35:05.658Z,37.80
2023-04-09T05:37:32.470Z,41.10
2023-04-09T05:39:59.230Z,34.43
2023-04-09T05:42:46.008Z,36.60
2023-04-09T05:45:12.738Z,39.47
2023-04-09T05:47:39.577Z,35.63
2023-04-09T05:50:06.976Z,35.27
2023-04-09T05:52:33.896Z,40.03
2023-04-09T05:55:01.046Z,34.47
2023-04-09T05:57:30.299Z,32.33
2023-04-09T05:59:57.215Z,34.57
2023-04-09T06:02:25.252Z,32.73
2023-04-09T06:04:52.182Z,33.00
2023-04-09T06:07:19.069Z,34.13
2023-04-09T06:09:46.965Z,33.67
2023-04-09T06:12:13.661Z,37.10
2023-04-09T06:14:40.517Z,35.83
2023-04-09T06:17:07.445Z,39.23
2023-04-09T06:19:34.317Z,38.47
2023-04-09T06:22:01.136Z,35.23
2023-04-09T06:24:27.955Z,40.20
2023-04-09T06:26:54.718Z,36.83
2023-04-09T06:29:24.189Z,36.87
2023-04-09T06:31:51.158Z,39.27
2023-04-09T06:34:17.897Z,33.97
2023-04-09T06:36:44.735Z,37.83
2023-04-09T06:39:11.651Z,39.13
2023-04-09T06:41:38.484Z,38.40
2023-04-09T06:44:05.387Z,36.80
2023-04-09T06:46:32.380Z,49.57
2023-04-09T06:48:59.204Z,36.57
2023-04-09T06:51:25.998Z,37.73
2023-04-09T06:53:52.923Z,38.73
2023-04-09T06:56:19.838Z,38.33
2023-04-09T06:58:47.269Z,34.80
2023-04-09T07:01:17.262Z,38.57
2023-04-09T07:03:44.227Z,36.83
2023-04-09T07:06:11.059Z,30.93
2023-04-09T07:08:37.885Z,29.13
2023-04-09T07:11:04.733Z,35.23
2023-04-09T07:13:33.233Z,32.20
2023-04-09T07:16:03.469Z,28.03
2023-04-09T07:18:31.190Z,33.57
2023-04-09T07:20:57.943Z,26.83
2023-04-09T07:23:24.714Z,28.37
2023-04-09T07:25:51.657Z,31.67
2023-04-09T07:28:18.392Z,36.37
2023-04-09T07:30:48.450Z,31.97
2023-04-09T07:33:15.470Z,33.30
2023-04-09T07:35:42.352Z,28.27
2023-04-09T07:38:09.172Z,33.40
2023-04-09T07:40:36.902Z,26.87
2023-04-09T07:43:04.759Z,27.43
2023-04-09T07:45:31.648Z,30.23
2023-04-09T07:47:58.557Z,29.33
2023-04-09T07:50:26.019Z,30.00
2023-04-09T07:52:52.802Z,31.87
2023-04-09T07:55:20.268Z,29.50
2023-04-09T07:57:48.261Z,32.13
2023-04-09T08:00:15.666Z,26.47
2023-04-09T08:02:42.514Z,29.53
2023-04-09T08:05:10.049Z,31.03
2023-04-09T08:07:36.948Z,23.13
2023-04-09T08:10:04.066Z,26.07
2023-04-09T08:12:30.773Z,24.70
2023-04-09T08:14:57.502Z,26.07
2023-04-09T08:17:24.750Z,24.80
2023-04-09T08:19:51.724Z,20.87
2023-04-09T08:22:18.461Z,27.27
2023-04-09T08:24:45.148Z,25.30
2023-04-09T08:27:12.341Z,25.93
2023-04-09T08:29:40.593Z,21.93
2023-04-09T08:32:08.208Z,21.27
2023-04-09T08:34:34.980Z,25.57
2023-04-09T08:37:02.137Z,33.83
2023-04-09T08:39:28.959Z,27.00
2023-04-09T08:42:00.105Z,30.40
2023-04-09T08:44:27.234Z,22.80
2023-04-09T08:46:54.368Z,26.60
2023-04-09T08:49:21.780Z,28.47
2023-04-09T08:51:49.295Z,27.47
2023-04-09T08:54:19.961Z,26.37
2023-04-09T08:56:47.201Z,23.07
2023-04-09T08:59:20.958Z,25.87
2023-04-09T09:01:52.836Z,24.23
2023-04-09T09:04:19.859Z,22.10
2023-04-09T09:06:46.681Z,26.80
2023-04-09T09:09:17.591Z,23.27
2023-04-09T09:11:46.122Z,21.87
2023-04-09T09:14:15.505Z,18.47
2023-04-09T09:16:44.567Z,20.80
2023-04-09T09:19:26.845Z,22.33
2023-04-09T09:22:02.052Z,24.57
2023-04-09T09:24:29.655Z,25.67
2023-04-09T09:26:57.474Z,21.13
2023-04-09T09:29:24.763Z,23.70
2023-04-09T09:31:56.717Z,28.07
2023-04-09T09:34:24.891Z,22.50
2023-04-09T09:36:51.616Z,25.87
2023-04-09T09:39:18.448Z,20.40
2023-04-09T09:41:47.344Z,22.60
2023-04-09T09:44:31.926Z,22.47
2023-04-09T09:46:59.348Z,23.80
2023-04-09T09:49:26.100Z,18.20
2023-04-09T09:51:57.573Z,21.17
2023-04-09T09:54:28.191Z,18.80
2023-04-09T09:57:01.059Z,18.70
2023-04-09T09:59:34.489Z,23.40
2023-04-09T10:02:05.823Z,25.23
2023-04-09T10:04:36.591Z,20.77
2023-04-09T10:07:07.470Z,21.87
2023-04-09T10:09:37.774Z,17.80
2023-04-09T10:12:06.985Z,21.30
2023-04-09T10:14:35.994Z,23.50
2023-04-09T10:17:04.124Z,14.90
2023-04-09T10:19:35.753Z,18.23
2023-04-09T10:22:13.840Z,20.67
2023-04-09T10:24:41.280Z,16.90
2023-04-09T10:27:15.726Z,18.20
2023-04-09T10:29:48.290Z,18.73
2023-04-09T10:32:23.922Z,16.40
2023-04-09T10:34:51.065Z,18.53
2023-04-09T10:37:28.702Z,16.43
2023-04-09T10:39:57.905Z,17.47
2023-04-09T10:42:38.903Z,16.57
2023-04-09T10:45:14.705Z,15.83
2023-04-09T10:47:43.846Z,16.87
2023-04-09T10:50:24.095Z,15.47
2023-04-09T10:53:00.223Z,16.80
2023-04-09T10:55:38.218Z,16.17
2023-04-09T10:58:07.187Z,16.80
2023-04-09T11:00:40.025Z,14.73
2023-04-09T11:03:19.200Z,21.07
2023-04-09T11:05:51.436Z,14.40
2023-04-09T11:08:18.654Z,14.90
2023-04-09T11:10:48.659Z,21.70
2023-04-09T11:13:19.976Z,18.93
2023-04-09T11:15:46.744Z,17.03
2023-04-09T11:18:27.140Z,11.20
2023-04-09T11:20:58.145Z,17.00
2023-04-09T11:23:25.863Z,16.17
2023-04-09T11:25:54.187Z,18.67
2023-04-09T11:28:21.493Z,17.07
2023-04-09T11:30:51.418Z,16.10
2023-04-09T11:33:20.085Z,12.87
2023-04-09T11:35:48.071Z,15.13
2023-04-09T11:38:14.826Z,16.40
2023-04-09T11:40:48.079Z,17.57
2023-04-09T11:43:16.729Z,16.83
2023-04-09T11:45:44.360Z,18.03
2023-04-09T11:48:12.211Z,13.83
2023-04-09T11:50:39.198Z,12.47
2023-04-09T11:53:23.028Z,15.30
2023-04-09T11:55:51.698Z,15.07
2023-04-09T11:58:18.721Z,14.97
2023-04-09T12:00:45.786Z,14.80
2023-04-09T12:03:12.991Z,13.97
2023-04-09T12:05:50.694Z,13.30
2023-04-09T12:08:23.624Z,14.77
2023-04-09T12:10:53.236Z,16.00
2023-04-09T12:13:20.592Z,15.53
2023-04-09T12:15:49.619Z,18.03
2023-04-09T12:18:16.471Z,15.97
2023-04-09T12:20:44.595Z,19.20
2023-04-09T12:23:12.842Z,15.77
2023-04-09T12:25:41.941Z,13.03
2023-04-09T12:28:11.337Z,21.97
2023-04-09T12:30:38.284Z,18.83
2023-04-09T12:33:05.947Z,14.70
2023-04-09T12:35:34.596Z,18.90
2023-04-09T12:38:01.667Z,18.37
2023-04-09T12:40:28.406Z,16.03
2023-04-09T12:42:55.456Z,15.37
2023-04-09T12:45:23.140Z,15.27
2023-04-09T12:47:50.083Z,15.93
2023-04-09T12:50:17.178Z,14.83
2023-04-09T12:52:44.385Z,24.20
2023-04-09T12:55:11.671Z,16.00
2023-04-09T12:57:39.975Z,15.60
2023-04-09T13:00:07.992Z,16.37
2023-04-09T13:02:35.937Z,18.43
2023-04-09T13:05:03.191Z,21.33
2023-04-09T13:07:30.475Z,15.60
2023-04-09T13:09:57.907Z,19.30
2023-04-09T13:12:25.139Z,13.37
2023-04-09T13:14:54.439Z,15.77
2023-04-09T13:17:21.289Z,17.40
2023-04-09T13:19:48.105Z,16.77
2023-04-09T13:22:15.015Z,11.10
2023-04-09T13:24:43.216Z,12.43
2023-04-09T13:27:11.434Z,15.50
2023-04-09T13:29:38.869Z,14.90
2023-04-09T13:32:10.928Z,16.03
2023-04-09T13:34:39.432Z,18.83
2023-04-09T13:37:06.575Z,16.77
2023-04-09T13:39:33.488Z,18.20
2023-04-09T13:42:03.665Z,17.03
2023-04-09T13:44:35.204Z,17.23
2023-04-09T13:47:01.989Z,16.70
2023-04-09T13:49:30.357Z,17.47
2023-04-09T13:51:57.708Z,16.43
2023-04-09T13:54:24.404Z,18.33
2023-04-09T13:56:51.825Z,16.07
2023-04-09T13:59:18.629Z,18.73
2023-04-09T14:01:45.451Z,15.70
2023-04-09T14:04:12.348Z,14.97
2023-04-09T14:06:39.240Z,12.20
2023-04-09T14:09:05.911Z,14.87
2023-04-09T14:11:32.553Z,13.10
2023-04-09T14:13:59.374Z,16.30
2023-04-09T14:16:26.540Z,17.80
2023-04-09T14:18:53.424Z,20.53
2023-04-09T14:21:20.389Z,22.63
2023-04-09T14:23:47.512Z,16.03
2023-04-09T14:26:14.527Z,14.90
2023-04-09T14:28:41.510Z,16.57
2023-04-09T14:31:08.529Z,19.10
2023-04-09T14:33:35.265Z,19.40
2023-04-09T14:36:01.995Z,14.90
2023-04-09T14:38:28.739Z,18.03
2023-04-09T14:40:55.531Z,17.90
2023-04-09T14:43:22.620Z,12.37
2023-04-09T14:45:49.314Z,16.43
2023-04-09T14:48:16.223Z,16.47
2023-04-09T14:50:44.132Z,15.30
2023-04-09T14:53:11.008Z,17.67
2023-04-09T14:55:38.667Z,18.23
2023-04-09T14:58:07.309Z,20.60
2023-04-09T15:00:36.190Z,18.80
2023-04-09T15:05:30.796Z,18.67
2023-04-09T15:07:57.745Z,21.77
2023-04-09T15:10:24.441Z,21.93
2023-04-09T15:12:51.313Z,21.27
2023-04-09T15:15:18.036Z,22.73
2023-04-09T15:17:44.796Z,19.40
2023-04-09T15:20:11.949Z,22.97
2023-04-09T15:22:38.669Z,21.40
2023-04-09T15:25:05.848Z,20.83
2023-04-09T15:27:32.992Z,20.97
2023-04-09T15:29:59.907Z,18.60
2023-04-09T15:32:28.561Z,19.67
2023-04-09T15:34:55.355Z,21.33
2023-04-09T15:37:22.020Z,22.20
2023-04-09T15:39:48.689Z,24.60
2023-04-09T15:42:20.382Z,22.87
2023-04-09T15:44:49.482Z,23.93
2023-04-09T15:47:16.331Z,19.60
2023-04-09T15:49:43.082Z,23.63
2023-04-09T15:52:12.548Z,21.13
2023-04-09T15:54:39.261Z,24.87
2023-04-09T15:57:05.955Z,20.20
2023-04-09T15:59:32.986Z,21.83
2023-04-09T16:02:00.070Z,22.83
2023-04-09T16:04:27.645Z,25.97
2023-04-09T16:06:56.457Z,28.17
2023-04-09T16:09:23.761Z,28.40
2023-04-09T16:11:51.136Z,23.70
2023-04-09T16:14:18.028Z,23.03
2023-04-09T16:16:49.585Z,24.23
2023-04-09T16:19:21.272Z,24.57
2023-04-09T16:21:49.114Z,24.43
2023-04-09T16:24:16.043Z,26.33
2023-04-09T16:26:44.612Z,26.00
2023-04-09T16:29:12.647Z,27.73
2023-04-09T16:31:42.181Z,27.10
2023-04-09T16:34:09.172Z,26.93
2023-04-09T16:36:37.186Z,33.40
2023-04-09T16:39:04.747Z,25.03
2023-04-09T16:41:31.873Z,29.27
2023-04-09T16:43:58.593Z,30.93
2023-04-09T16:46:25.417Z,33.43
2023-04-09T16:48:52.469Z,33.30
2023-04-09T16:51:19.436Z,31.17
2023-04-09T16:53:46.196Z,32.60
2023-04-09T16:56:12.910Z,35.17
2023-04-09T16:58:39.840Z,31.23
2023-04-09T17:01:07.034Z,36.90
2023-04-09T17:03:33.901Z,38.80
2023-04-09T17:06:00.764Z,31.00
2023-04-09T17:08:27.425Z,19.80
2023-04-09T17:11:02.006Z,24.33
2023-04-09T17:13:29.972Z,17.47
2023-04-09T17:15:56.817Z,20.07
2023-04-09T17:18:23.992Z,18.50
2023-04-09T17:20:51.046Z,18.30
2023-04-09T17:23:17.920Z,22.83
2023-04-09T17:25:44.854Z,21.17
2023-04-09T17:28:11.936Z,27.97
2023-04-09T17:30:38.649Z,23.70
2023-04-09T17:33:05.594Z,24.77
2023-04-09T17:35:32.751Z,25.27
2023-04-09T17:38:01.142Z,23.87
2023-04-09T17:40:28.305Z,23.47
2023-04-09T17:42:56.137Z,25.63
2023-04-09T17:45:22.869Z,22.83
2023-04-09T17:47:51.207Z,26.27
2023-04-09T17:50:18.386Z,28.57
2023-04-09T17:52:45.142Z,26.93
2023-04-09T17:55:12.989Z,26.87
2023-04-09T17:57:41.037Z,26.37
2023-04-09T18:00:08.791Z,25.17
2023-04-09T18:02:35.930Z,25.73
2023-04-09T18:05:07.293Z,31.70
2023-04-09T18:07:34.516Z,29.00
2023-04-09T18:10:03.009Z,28.83
2023-04-09T18:12:30.156Z,29.83
2023-04-09T18:14:56.959Z,30.57
2023-04-09T18:17:23.824Z,33.67
2023-04-09T18:19:53.990Z,33.40
2023-04-09T18:22:20.711Z,34.83
2023-04-09T18:24:47.405Z,34.00
2023-04-09T18:27:14.085Z,33.37
2023-04-09T18:29:41.500Z,41.87
2023-04-09T18:32:08.176Z,34.90
2023-04-09T18:34:34.873Z,36.00
2023-04-09T18:37:01.717Z,38.73
2023-04-09T18:39:30.763Z,34.93
2023-04-09T18:41:58.075Z,36.87
2023-04-09T18:44:24.908Z,37.27
2023-04-09T18:46:52.322Z,48.23
2023-04-09T18:49:19.039Z,46.07
2023-04-09T18:51:45.697Z,52.77
2023-04-09T18:54:12.372Z,40.83
2023-04-09T18:56:39.124Z,38.07
2023-04-09T18:59:05.783Z,38.27
2023-04-09T19:01:32.586Z,37.77
2023-04-09T19:03:59.553Z,36.93
2023-04-09T19:06:27.899Z,33.60
2023-04-09T19:08:58.123Z,31.93
2023-04-09T19:11:25.963Z,34.77
2023-04-09T19:13:52.809Z,35.70
2023-04-09T19:16:20.828Z,34.83
2023-04-09T19:18:47.943Z,33.57
2023-04-09T19:21:14.666Z,38.30
2023-04-09T19:23:41.363Z,35.53
2023-04-09T19:26:08.099Z,48.67
2023-04-09T19:28:34.866Z,33.83
2023-04-09T19:31:03.415Z,34.63
2023-04-09T19:33:30.859Z,37.17
2023-04-09T19:35:57.626Z,33.33
2023-04-09T19:38:24.458Z,36.00
2023-04-09T19:40:51.094Z,36.97
2023-04-09T19:43:17.804Z,33.87
2023-04-09T19:45:44.645Z,31.77
2023-04-09T19:48:12.666Z,32.50
2023-04-09T19:50:40.959Z,34.77
2023-04-09T19:53:07.879Z,32.80
2023-04-09T19:55:35.042Z,30.00
2023-04-09T19:58:02.567Z,34.00
2023-04-09T20:00:29.551Z,31.23
2023-04-09T20:02:57.229Z,32.27
2023-04-09T20:05:24.501Z,37.47
2023-04-09T20:07:52.766Z,28.97
2023-04-09T20:10:19.887Z,32.97
2023-04-09T20:12:48.026Z,34.83
2023-04-09T20:15:15.372Z,41.50
2023-04-09T20:17:42.702Z,43.70
2023-04-09T20:20:09.908Z,41.73
2023-04-09T20:22:36.679Z,38.13
2023-04-09T20:25:03.415Z,31.93
2023-04-09T20:27:30.103Z,37.87
2023-04-09T20:29:56.753Z,30.17
2023-04-09T20:32:23.701Z,34.47
2023-04-09T20:34:50.447Z,30.30
2023-04-09T20:37:17.140Z,28.10
2023-04-09T20:39:43.922Z,27.90
2023-04-09T20:42:10.708Z,36.67
2023-04-09T20:44:38.284Z,33.97
2023-04-09T20:47:07.223Z,35.47
2023-04-09T20:49:33.973Z,28.63
2023-04-09T20:52:00.775Z,30.80
2023-04-09T20:54:28.098Z,30.30
2023-04-09T20:56:55.124Z,39.93
2023-04-09T20:59:21.963Z,34.60
2023-04-09T21:01:48.940Z,31.80
2023-04-09T21:04:16.100Z,31.87
2023-04-09T21:06:43.021Z,34.00
2023-04-09T21:09:09.721Z,36.47
2023-04-09T21:11:36.412Z,31.23
2023-04-09T21:14:04.143Z,35.00
2023-04-09T21:16:31.199Z,38.73
2023-04-09T21:18:58.455Z,38.47
2023-04-09T21:21:27.516Z,38.47
2023-04-09T21:23:54.288Z,34.23
2023-04-09T21:26:20.981Z,36.73
2023-04-09T21:28:50.577Z,38.03
2023-04-09T21:31:17.697Z,33.80
2023-04-09T21:33:44.444Z,34.47
2023-04-09T21:36:11.329Z,37.30
2023-04-09T21:38:38.179Z,41.33
2023-04-09T21:41:05.096Z,37.70
2023-04-09T21:43:31.766Z,35.80
2023-04-09T21:45:58.913Z,34.97
2023-04-09T21:48:26.509Z,31.87
2023-04-09T21:50:53.203Z,31.83
2023-04-09T21:53:19.955Z,35.37
2023-04-09T21:55:47.199Z,35.93
2023-04-09T21:58:13.900Z,36.63
2023-04-09T22:00:40.688Z,35.83
2023-04-09T22:03:07.699Z,37.87
2023-04-09T22:05:34.790Z,40.20
2023-04-09T22:08:01.446Z,35.03
2023-04-09T22:10:28.433Z,39.53
2023-04-09T22:12:55.724Z,42.97
2023-04-09T22:15:22.446Z,47.80
2023-04-09T22:17:49.293Z,39.60
2023-04-09T22:20:16.198Z,41.03
2023-04-09T22:22:43.096Z,42.07
2023-04-09T22:25:11.632Z,41.83
2023-04-09T22:27:38.883Z,52.97
2023-04-09T22:30:06.362Z,45.93
2023-04-09T22:32:36.031Z,45.53
2023-04-09T22:35:02.712Z,41.93
2023-04-09T22:37:29.342Z,44.30
2023-04-09T22:39:56.544Z,47.43
2023-04-09T22:42:25.337Z,46.30
2023-04-09T22:44:53.844Z,45.90
2023-04-09T22:47:20.603Z,41.27
2023-04-09T22:49:47.469Z,43.50
2023-04-09T22:52:14.195Z,46.30
2023-04-09T22:54:43.128Z,43.40
2023-04-09T22:57:09.825Z,48.30
2023-04-09T22:59:40.307Z,47.40
2023-04-09T23:02:08.272Z,48.37
2023-04-09T23:04:35.210Z,41.20
2023-04-09T23:07:02.534Z,44.80
2023-04-09T23:09:30.996Z,51.73
2023-04-09T23:11:57.942Z,43.23
2023-04-09T23:14:24.838Z,48.37
2023-04-09T23:16:51.681Z,49.10
2023-04-09T23:19:18.421Z,54.57
2023-04-09T23:21:45.225Z,53.13
2023-04-09T23:24:11.966Z,47.40
2023-04-09T23:26:38.592Z,49.37
2023-04-09T23:29:05.326Z,50.03
2023-04-09T23:31:32.182Z,48.83
2023-04-09T23:33:58.975Z,54.70
2023-04-09T23:36:26.157Z,53.90
2023-04-09T23:38:52.843Z,48.83
2023-04-09T23:41:19.514Z,45.17
2023-04-09T23:43:46.818Z,52.17
2023-04-09T23:46:13.604Z,51.40
2023-04-09T23:48:40.380Z,50.67
2023-04-09T23:51:07.125Z,49.60
2023-04-09T23:53:33.822Z,46.40
2023-04-09T23:56:00.722Z,50.63
2023-04-09T23:58:27.411Z,50.67
